createdAt,value
2018-07-08T17:28:20.968Z,25.20
2018-07-08T17:31:56.772Z,25.30
2018-07-08T17:34:25.467Z,25.40
2018-07-08T17:36:53.689Z,25.30
2018-07-08T17:39:21.957Z,25.20
2018-07-08T17:41:50.201Z,25.30
2018-07-08T17:44:18.476Z,25.10
2018-07-08T17:46:47.798Z,24.90
2018-07-08T17:49:16.946Z,25.00
2018-07-08T17:51:45.248Z,25.10
2018-07-08T17:54:13.523Z,25.00
2018-07-08T17:56:41.998Z,25.10
2018-07-08T17:59:10.883Z,25.20
2018-07-08T18:01:39.297Z,25.20
2018-07-08T18:06:35.734Z,24.80
2018-07-08T18:09:05.022Z,24.70
2018-07-08T18:11:33.273Z,24.80
2018-07-08T18:14:01.550Z,24.70
2018-07-08T18:18:57.946Z,24.60
2018-07-08T18:21:26.361Z,24.60
2018-07-08T18:23:54.589Z,24.40
2018-07-08T18:26:23.781Z,24.40
2018-07-08T18:28:52.254Z,24.20
2018-07-08T18:31:20.529Z,24.10
2018-07-08T18:33:48.821Z,24.00
2018-07-08T18:36:17.080Z,23.90
2018-07-08T18:38:45.454Z,24.00
2018-07-08T18:41:13.780Z,23.90
2018-07-08T18:43:42.580Z,23.80
2018-07-08T18:46:11.289Z,23.50
2018-07-08T18:48:40.496Z,23.20
2018-07-08T18:51:09.225Z,23.20
2018-07-08T18:53:37.605Z,23.10
2018-07-08T18:56:05.913Z,23.00
2018-07-08T19:01:02.210Z,22.70
2018-07-08T19:03:30.458Z,22.60
2018-07-08T19:05:58.709Z,22.50
2018-07-08T19:08:27.123Z,22.40
2018-07-08T19:10:55.521Z,22.40
2018-07-08T19:13:23.825Z,22.30
2018-07-08T19:15:52.111Z,22.20
2018-07-08T19:18:20.352Z,22.20
2018-07-08T19:20:48.622Z,22.10
2018-07-08T19:23:16.935Z,22.10
2018-07-08T19:25:45.179Z,22.00
2018-07-08T19:28:13.409Z,22.00
2018-07-08T19:30:41.671Z,22.00
2018-07-08T19:33:10.043Z,21.90
2018-07-08T19:35:38.293Z,21.90
2018-07-08T19:38:06.930Z,21.80
2018-07-08T19:40:35.248Z,21.80
2018-07-08T19:43:03.533Z,21.70
2018-07-08T19:45:31.796Z,21.70
2018-07-08T19:48:00.530Z,21.70
2018-07-08T19:50:29.413Z,21.60
2018-07-08T19:52:58.307Z,21.50
2018-07-08T19:55:26.678Z,21.40
2018-07-08T19:57:54.936Z,21.40
2018-07-08T20:00:23.180Z,21.30
2018-07-08T20:02:51.437Z,21.30
2018-07-08T20:05:20.042Z,21.20
2018-07-08T20:07:48.695Z,21.20
2018-07-08T20:10:16.934Z,21.20
2018-07-08T20:12:45.206Z,21.10
2018-07-08T20:15:13.600Z,21.10
2018-07-08T20:17:41.906Z,20.90
2018-07-08T20:20:11.211Z,20.80
2018-07-08T20:22:39.448Z,20.80
2018-07-08T20:25:08.384Z,20.70
2018-07-08T20:27:37.023Z,20.80
2018-07-08T20:30:05.289Z,20.80
2018-07-08T20:35:02.867Z,20.70
2018-07-08T20:37:31.576Z,20.50
2018-07-08T20:39:59.968Z,20.60
2018-07-08T20:42:29.089Z,20.50
2018-07-08T20:44:57.439Z,20.40
2018-07-08T20:47:25.942Z,20.40
2018-07-08T20:49:54.191Z,20.40
2018-07-08T20:52:22.465Z,20.50
2018-07-08T20:54:50.918Z,20.40
2018-07-08T20:57:19.194Z,20.40
2018-07-08T20:59:47.472Z,20.40
2018-07-08T21:02:16.124Z,20.40
2018-07-08T21:04:44.501Z,20.30
2018-07-08T21:07:13.158Z,20.20
2018-07-08T21:09:41.629Z,20.20
2018-07-08T21:12:10.190Z,20.20
2018-07-08T21:14:38.731Z,20.10
2018-07-08T21:17:07.041Z,20.10
2018-07-08T21:19:35.589Z,20.10
2018-07-08T21:22:03.828Z,20.00
2018-07-08T21:24:32.080Z,20.00
2018-07-08T21:27:00.347Z,20.00
2018-07-08T21:29:28.791Z,19.90
2018-07-08T21:31:57.057Z,19.80
2018-07-08T21:34:25.493Z,19.80
2018-07-08T21:36:53.855Z,19.70
2018-07-08T21:39:22.127Z,19.70
2018-07-08T21:41:50.397Z,19.70
2018-07-08T21:44:18.638Z,19.70
2018-07-08T21:46:46.975Z,19.70
2018-07-08T21:49:15.199Z,19.60
2018-07-08T21:51:43.448Z,19.60
2018-07-08T21:54:11.682Z,19.50
2018-07-08T21:56:39.957Z,19.50
2018-07-08T21:59:08.250Z,19.50
2018-07-08T22:01:57.337Z,19.40
2018-07-08T22:04:25.645Z,19.30
2018-07-08T22:06:58.317Z,19.30
2018-07-08T22:09:26.770Z,19.40
2018-07-08T22:11:55.006Z,19.40
2018-07-08T22:14:23.313Z,19.40
2018-07-08T22:16:51.573Z,19.30
2018-07-08T22:19:19.812Z,19.30
2018-07-08T22:21:48.354Z,19.30
2018-07-08T22:24:16.735Z,19.40
2018-07-08T22:26:45.426Z,19.30
2018-07-08T22:29:13.706Z,19.30
2018-07-08T22:31:42.245Z,19.30
2018-07-08T22:34:10.574Z,19.20
2018-07-08T22:36:38.862Z,19.20
2018-07-08T22:39:08.220Z,19.10
2018-07-08T22:44:05.748Z,19.10
2018-07-08T22:46:34.337Z,19.10
2018-07-08T22:49:02.539Z,19.10
2018-07-08T22:51:31.039Z,19.00
2018-07-08T22:53:59.295Z,19.00
2018-07-08T22:58:55.617Z,19.00
2018-07-08T23:01:35.236Z,19.00
2018-07-08T23:04:03.716Z,19.00
2018-07-08T23:06:32.411Z,19.00
2018-07-08T23:09:00.785Z,19.00
2018-07-08T23:11:29.538Z,18.90
2018-07-08T23:13:58.950Z,18.90
2018-07-08T23:16:27.740Z,18.90
2018-07-08T23:18:56.348Z,18.80
2018-07-08T23:21:24.669Z,18.80
2018-07-08T23:23:52.906Z,18.80
2018-07-08T23:26:21.149Z,18.80
2018-07-08T23:28:49.431Z,18.60
2018-07-08T23:31:17.693Z,18.60
2018-07-08T23:33:45.981Z,18.60
2018-07-08T23:36:14.242Z,18.60
2018-07-08T23:38:42.566Z,18.60
2018-07-08T23:41:11.524Z,18.50
2018-07-08T23:43:39.765Z,18.50
2018-07-08T23:48:36.795Z,18.40
2018-07-08T23:51:05.148Z,18.40
2018-07-08T23:53:33.436Z,18.50
2018-07-08T23:56:01.706Z,18.50
2018-07-08T23:58:29.979Z,18.50
